Terminal Aerodrome Forecast
Issued by NWS Shreveport, LA

Home | Current Version | Previous Version | Text Only | Print | Product List | Glossary On
Versions: 1 2 3 4 5 6 7 8 9 10 11 12 13 14 15 16 17
000
FTUS44 KSHV 300528
TAFLFK
TAF
KLFK 300528Z 3006/3106 00000KT P6SM FEW100 SCT250
     FM301400 VRB04KT P6SM SCT250
     FM301700 VRB05KT P6SM SCT050 SCT250
     FM310200 VRB03KT P6SM FEW070 SCT250=

USA.gov is the U.S. government's official web portal to all federal, state and local government web resources and services.